Paulette, Mississippi
Current Conditions -  °F | °C
As of 5:45 PM on Monday 26 Jan 2015 (Local Time) from KGTR Reporting Station
Clear Clear  
Wind Chill: 44°   Ceiling: Unl
Heat Index: 46°   Visibility: 10mi
Dew Point: 28°   Wind: 5mph
Humidity: 50%   Direction: 260°W
Pressure: 29.99"   Gusts: NA
Location:  33.0597°N, 88.6007°W
Report Text: KGTR 262345Z 26004KT 10SM SKC 08/M02 A2999
Loading
Personal Weather Stations






























Interactive Weather Map New forecast layout! Learn more

10-Day Weather Forecast

Advertisements
Track Severe Weather on mobile